createdAt,value
2018-09-14T00:00:58.212Z,15.40
2018-09-14T00:03:26.860Z,15.30
2018-09-14T00:05:55.512Z,15.30
2018-09-14T00:08:24.170Z,15.40
2018-09-14T00:10:52.808Z,15.30
2018-09-14T00:13:21.451Z,15.40
2018-09-14T00:15:50.128Z,15.40
2018-09-14T00:18:18.797Z,15.30
2018-09-14T00:20:47.439Z,15.30
2018-09-14T00:23:16.108Z,15.40
2018-09-14T00:25:44.732Z,15.30
2018-09-14T00:28:13.380Z,15.40
2018-09-14T00:30:42.011Z,15.40
2018-09-14T00:33:10.693Z,15.30
2018-09-14T00:35:39.430Z,15.30
2018-09-14T00:38:08.093Z,15.30
2018-09-14T00:40:36.728Z,15.30
2018-09-14T00:43:05.380Z,15.30
2018-09-14T00:45:34.039Z,15.30
2018-09-14T00:48:02.682Z,15.30
2018-09-14T00:50:31.301Z,15.30
2018-09-14T00:52:59.945Z,15.30
2018-09-14T00:55:28.561Z,15.30
2018-09-14T00:57:57.277Z,15.30
2018-09-14T01:00:26.099Z,15.30
2018-09-14T01:02:55.035Z,15.30
2018-09-14T01:05:23.833Z,15.30
2018-09-14T01:07:52.599Z,15.30
2018-09-14T01:10:21.235Z,15.30
2018-09-14T01:12:49.882Z,15.30
2018-09-14T01:15:18.527Z,15.30
2018-09-14T01:17:47.178Z,15.30
2018-09-14T01:20:15.822Z,15.40
2018-09-14T01:22:44.435Z,15.40
2018-09-14T01:25:13.080Z,15.30
2018-09-14T01:27:41.819Z,15.30
2018-09-14T01:30:10.461Z,15.40
2018-09-14T01:32:39.120Z,15.30
2018-09-14T01:35:13.137Z,15.20
2018-09-14T01:37:41.793Z,15.20
2018-09-14T01:40:10.434Z,15.10
2018-09-14T01:42:39.207Z,15.10
2018-09-14T01:45:07.875Z,15.20
2018-09-14T01:47:36.511Z,15.20
2018-09-14T01:50:06.138Z,15.20
2018-09-14T01:52:34.906Z,15.20
2018-09-14T01:55:03.615Z,15.20
2018-09-14T01:57:32.255Z,15.20
2018-09-14T02:00:00.904Z,15.20
2018-09-14T02:02:29.532Z,15.20
2018-09-14T02:04:58.180Z,15.20
2018-09-14T02:07:26.851Z,15.20
2018-09-14T02:09:55.481Z,15.20
2018-09-14T02:12:24.163Z,15.20
2018-09-14T02:14:52.767Z,15.20
2018-09-14T02:17:21.392Z,15.20
2018-09-14T02:19:50.038Z,15.20
2018-09-14T02:22:18.665Z,15.20
2018-09-14T02:24:47.296Z,15.20
2018-09-14T02:27:15.924Z,15.20
2018-09-14T02:29:44.560Z,15.20
2018-09-14T02:32:13.198Z,15.20
2018-09-14T02:34:41.856Z,15.20
2018-09-14T02:37:10.521Z,15.20
2018-09-14T02:39:39.162Z,15.20
2018-09-14T02:42:07.805Z,15.10
2018-09-14T02:44:36.455Z,15.10
2018-09-14T02:47:05.149Z,15.10
2018-09-14T02:49:33.781Z,15.20
2018-09-14T02:52:02.494Z,15.20
2018-09-14T02:54:31.132Z,15.10
2018-09-14T02:56:59.751Z,15.10
2018-09-14T02:59:28.393Z,15.10
2018-09-14T03:01:57.035Z,15.20
2018-09-14T03:04:25.707Z,15.20
2018-09-14T03:06:54.349Z,15.20
2018-09-14T03:09:23.024Z,15.10
2018-09-14T03:11:51.655Z,15.10
2018-09-14T03:14:20.309Z,15.20
2018-09-14T03:16:48.944Z,15.20
2018-09-14T03:19:17.627Z,15.20
2018-09-14T03:21:46.312Z,15.20
2018-09-14T03:24:14.951Z,15.10
2018-09-14T03:26:43.585Z,15.10
2018-09-14T03:29:12.223Z,15.20
2018-09-14T03:31:40.877Z,15.10
2018-09-14T03:34:09.560Z,15.20
2018-09-14T03:36:38.210Z,15.10
2018-09-14T03:39:07.863Z,15.10
2018-09-14T03:41:36.440Z,15.10
2018-09-14T03:44:05.068Z,15.10
2018-09-14T03:46:33.720Z,15.10
2018-09-14T03:49:02.352Z,15.10
2018-09-14T03:51:30.990Z,15.10
2018-09-14T03:53:59.629Z,15.10
2018-09-14T03:56:28.284Z,15.20
2018-09-14T03:58:56.942Z,15.10
2018-09-14T04:01:25.584Z,15.10
2018-09-14T04:03:54.228Z,15.10
2018-09-14T04:06:23.015Z,15.10
2018-09-14T04:08:51.648Z,15.10
2018-09-14T04:11:20.572Z,15.20
2018-09-14T04:13:49.196Z,15.10
2018-09-14T04:16:17.904Z,15.10
2018-09-14T04:19:02.144Z,15.10
2018-09-14T04:21:31.870Z,15.10
2018-09-14T04:24:00.525Z,15.10
2018-09-14T04:26:29.346Z,15.10
2018-09-14T04:28:58.556Z,15.10
2018-09-14T04:31:27.299Z,15.10
2018-09-14T04:33:56.050Z,15.10
2018-09-14T04:36:24.773Z,15.00
2018-09-14T04:38:53.432Z,15.00
2018-09-14T04:41:22.071Z,15.00
2018-09-14T04:43:50.714Z,15.00
2018-09-14T04:46:19.414Z,15.10
2018-09-14T04:48:48.031Z,15.10
2018-09-14T04:51:16.755Z,15.10
2018-09-14T04:53:45.349Z,15.10
2018-09-14T04:56:13.979Z,15.00
2018-09-14T04:58:42.623Z,15.10
2018-09-14T05:01:11.272Z,15.00
2018-09-14T05:03:39.907Z,15.10
2018-09-14T05:06:08.586Z,15.00
2018-09-14T05:08:37.227Z,15.10
2018-09-14T05:11:05.916Z,15.10
2018-09-14T05:13:34.638Z,15.10
2018-09-14T05:16:03.277Z,15.10
2018-09-14T05:18:31.922Z,15.10
2018-09-14T05:21:00.558Z,15.10
2018-09-14T05:23:29.205Z,15.10
2018-09-14T05:25:57.852Z,15.10
2018-09-14T05:28:26.496Z,15.10
2018-09-14T05:30:55.128Z,15.10
2018-09-14T05:33:23.772Z,15.10
2018-09-14T05:35:52.427Z,15.10
2018-09-14T05:38:21.094Z,15.10
2018-09-14T05:40:49.759Z,15.10
2018-09-14T05:43:18.400Z,15.20
2018-09-14T05:45:47.089Z,15.20
2018-09-14T05:48:15.712Z,15.10
2018-09-14T05:50:44.358Z,15.10
2018-09-14T05:53:13.002Z,15.20
2018-09-14T05:55:41.926Z,15.10
2018-09-14T05:58:10.708Z,15.10
2018-09-14T06:00:39.408Z,15.20
2018-09-14T06:03:08.049Z,15.20
2018-09-14T06:05:36.729Z,15.20
2018-09-14T06:08:05.501Z,15.30
2018-09-14T06:10:34.225Z,15.30
2018-09-14T06:13:02.871Z,15.30
2018-09-14T06:15:31.537Z,15.30
2018-09-14T06:18:00.197Z,15.30
2018-09-14T06:20:28.850Z,15.30
2018-09-14T06:22:57.598Z,15.30
2018-09-14T06:25:26.224Z,15.30
2018-09-14T06:27:54.893Z,15.30
2018-09-14T06:30:23.581Z,15.30
2018-09-14T06:32:52.155Z,15.30
2018-09-14T06:35:20.841Z,15.40
2018-09-14T06:37:49.529Z,15.40
2018-09-14T06:40:18.244Z,15.40
2018-09-14T06:42:46.912Z,15.50
2018-09-14T06:45:15.648Z,15.50
2018-09-14T06:47:44.254Z,15.50
2018-09-14T06:50:12.896Z,15.50
2018-09-14T06:52:41.516Z,15.50
2018-09-14T06:55:10.192Z,15.40
2018-09-14T06:57:38.870Z,15.50
2018-09-14T07:00:07.610Z,15.50
2018-09-14T07:02:36.210Z,15.50
2018-09-14T07:05:04.848Z,15.50
2018-09-14T07:07:33.510Z,15.60
2018-09-14T07:10:02.228Z,15.60
2018-09-14T07:12:30.956Z,15.60
2018-09-14T07:14:59.725Z,15.70
2018-09-14T07:17:28.604Z,15.70
2018-09-14T07:19:57.465Z,15.80
2018-09-14T07:22:26.134Z,15.80
2018-09-14T07:24:54.739Z,15.80
2018-09-14T07:27:23.444Z,15.90
2018-09-14T07:29:52.110Z,15.90
2018-09-14T07:32:20.759Z,16.00
2018-09-14T07:34:49.520Z,16.00
2018-09-14T07:37:18.266Z,16.10
2018-09-14T07:39:46.954Z,16.20
2018-09-14T07:42:15.585Z,16.20
2018-09-14T07:44:44.264Z,16.30
2018-09-14T07:47:12.920Z,16.40
2018-09-14T07:49:41.610Z,16.40
2018-09-14T07:52:10.244Z,16.40
2018-09-14T07:54:38.974Z,16.30
2018-09-14T07:57:07.641Z,16.40
2018-09-14T07:59:36.284Z,16.40
2018-09-14T08:02:04.974Z,16.40
2018-09-14T08:04:33.713Z,16.40
2018-09-14T08:07:02.355Z,16.30
2018-09-14T08:09:30.993Z,16.30
2018-09-14T08:11:59.690Z,16.30
2018-09-14T08:14:28.298Z,16.40
2018-09-14T08:16:57.003Z,16.40
2018-09-14T08:19:25.658Z,16.40
2018-09-14T08:21:54.375Z,16.50
2018-09-14T08:24:23.255Z,16.40
2018-09-14T08:26:52.151Z,16.30
2018-09-14T08:29:20.732Z,16.20
2018-09-14T08:31:49.377Z,16.20
2018-09-14T08:34:18.016Z,16.20
2018-09-14T08:36:46.666Z,16.20
2018-09-14T08:39:15.320Z,16.20
2018-09-14T08:41:43.945Z,16.20
2018-09-14T08:44:12.618Z,16.20
2018-09-14T08:46:41.288Z,16.30
2018-09-14T08:49:09.929Z,16.30
2018-09-14T08:51:38.589Z,16.30
2018-09-14T08:54:07.227Z,16.30
2018-09-14T08:56:35.930Z,16.30
2018-09-14T08:59:04.683Z,16.30
2018-09-14T09:01:33.415Z,16.30
2018-09-14T09:04:02.146Z,16.30
2018-09-14T09:06:30.820Z,16.40
2018-09-14T09:08:59.597Z,16.40
2018-09-14T09:11:28.415Z,16.40
2018-09-14T09:13:57.190Z,16.50
2018-09-14T09:16:25.940Z,16.50
2018-09-14T09:18:54.732Z,16.50
2018-09-14T09:21:23.359Z,16.60
2018-09-14T09:23:52.030Z,16.60
2018-09-14T09:26:20.779Z,16.70
2018-09-14T09:28:49.396Z,16.60
2018-09-14T09:31:18.089Z,16.60
2018-09-14T09:33:46.698Z,16.80
2018-09-14T09:36:15.343Z,16.90
2018-09-14T09:38:43.999Z,16.90
2018-09-14T09:41:12.654Z,17.10
2018-09-14T09:43:41.500Z,17.30
2018-09-14T09:46:10.042Z,17.40
2018-09-14T09:48:38.734Z,17.60
2018-09-14T09:51:07.500Z,17.80
2018-09-14T09:53:36.124Z,18.00
2018-09-14T09:56:04.770Z,18.10
2018-09-14T09:58:33.437Z,18.20
2018-09-14T10:01:07.564Z,18.30
2018-09-14T10:03:41.672Z,18.30
2018-09-14T10:06:15.770Z,18.40
2018-09-14T10:08:44.499Z,18.50
2018-09-14T10:11:13.221Z,18.60
2018-09-14T10:13:42.063Z,18.40
2018-09-14T10:16:10.835Z,18.40
2018-09-14T10:18:39.477Z,18.50
2018-09-14T10:21:08.245Z,18.50
2018-09-14T10:23:37.032Z,18.50
2018-09-14T10:26:05.652Z,18.50
2018-09-14T10:28:34.309Z,18.30
2018-09-14T10:31:02.928Z,18.30
2018-09-14T10:33:31.743Z,18.30
2018-09-14T10:36:00.379Z,18.20
2018-09-14T10:38:29.070Z,18.20
2018-09-14T10:40:57.722Z,18.20
2018-09-14T10:43:26.359Z,18.20
2018-09-14T10:45:55.060Z,18.40
2018-09-14T10:48:23.727Z,18.40
2018-09-14T10:50:52.627Z,18.60
2018-09-14T10:53:21.373Z,18.50
2018-09-14T10:55:50.113Z,18.50
2018-09-14T10:58:18.885Z,18.70
2018-09-14T11:00:47.578Z,18.60
2018-09-14T11:03:16.203Z,18.80
2018-09-14T11:05:44.843Z,18.70
2018-09-14T11:08:13.554Z,18.70
2018-09-14T11:10:42.225Z,18.70
2018-09-14T11:13:10.843Z,18.60
2018-09-14T11:15:39.561Z,18.60
2018-09-14T11:18:08.225Z,18.60
2018-09-14T11:20:36.877Z,18.60
2018-09-14T11:23:05.520Z,18.50
2018-09-14T11:25:34.260Z,18.50
2018-09-14T11:28:02.965Z,18.50
2018-09-14T11:30:31.597Z,18.50
2018-09-14T11:33:00.272Z,18.60
2018-09-14T11:35:28.907Z,18.60
2018-09-14T11:37:57.730Z,18.60
2018-09-14T11:40:26.241Z,18.60
2018-09-14T11:42:54.903Z,18.50
2018-09-14T11:45:23.627Z,18.50
2018-09-14T11:47:52.204Z,18.60
2018-09-14T11:50:20.969Z,18.50
2018-09-14T11:52:49.630Z,18.40
2018-09-14T11:55:18.313Z,18.50
2018-09-14T11:57:46.952Z,18.50
2018-09-14T12:00:15.710Z,18.50
2018-09-14T12:02:44.368Z,18.50
2018-09-14T12:05:13.070Z,18.60
2018-09-14T12:07:41.712Z,18.60
2018-09-14T12:10:10.456Z,18.60
2018-09-14T12:12:39.114Z,18.80
2018-09-14T12:15:07.793Z,18.70
2018-09-14T12:17:36.397Z,18.80
2018-09-14T12:20:05.117Z,18.80
2018-09-14T12:22:33.809Z,18.80
2018-09-14T12:25:02.546Z,18.90
2018-09-14T12:27:31.176Z,18.80
2018-09-14T12:29:59.849Z,18.80
2018-09-14T12:32:28.529Z,18.80
2018-09-14T12:34:57.184Z,18.80
2018-09-14T12:37:25.861Z,18.80
2018-09-14T12:39:54.508Z,18.70
2018-09-14T12:42:23.483Z,18.70
2018-09-14T12:44:52.128Z,18.80
2018-09-14T12:47:20.870Z,18.80
2018-09-14T12:49:49.573Z,18.80
2018-09-14T12:52:18.187Z,18.80
2018-09-14T12:54:46.873Z,18.80
2018-09-14T12:57:15.607Z,18.90
2018-09-14T12:59:44.276Z,18.90
2018-09-14T13:02:12.978Z,19.00
2018-09-14T13:04:41.608Z,18.90
2018-09-14T13:07:11.195Z,18.90
2018-09-14T13:09:39.820Z,18.90
2018-09-14T13:12:08.468Z,18.90
2018-09-14T13:14:37.212Z,18.90
2018-09-14T13:17:10.158Z,18.90
2018-09-14T13:19:38.844Z,18.90
2018-09-14T13:22:07.596Z,18.90
2018-09-14T13:24:36.236Z,18.90
2018-09-14T13:27:04.928Z,18.90
2018-09-14T13:29:33.813Z,18.90
2018-09-14T13:32:02.478Z,18.90
2018-09-14T13:34:31.136Z,18.90
2018-09-14T13:36:59.806Z,18.90
2018-09-14T13:39:28.454Z,18.90
2018-09-14T13:41:57.120Z,18.90
2018-09-14T13:44:25.749Z,18.90
2018-09-14T13:46:54.466Z,18.90
2018-09-14T13:49:23.101Z,18.90
2018-09-14T13:51:51.784Z,18.90
2018-09-14T13:54:20.438Z,19.00
2018-09-14T13:56:49.094Z,18.90
2018-09-14T13:59:17.932Z,18.90
2018-09-14T14:01:46.733Z,18.90
2018-09-14T14:04:21.817Z,18.90
2018-09-14T14:06:50.528Z,18.90
2018-09-14T14:09:19.189Z,18.90
2018-09-14T14:11:47.849Z,18.90
2018-09-14T14:14:16.512Z,19.00
2018-09-14T14:16:45.249Z,19.00
2018-09-14T14:19:13.893Z,19.00
2018-09-14T14:21:42.592Z,19.00
2018-09-14T14:24:11.255Z,19.00
2018-09-14T14:26:39.959Z,19.00
2018-09-14T14:29:08.665Z,19.00
2018-09-14T14:31:37.335Z,19.00
2018-09-14T14:34:06.010Z,19.00
2018-09-14T14:36:34.717Z,18.90
2018-09-14T14:39:04.749Z,19.00
2018-09-14T14:41:33.510Z,19.00
2018-09-14T14:44:02.100Z,19.00
2018-09-14T14:46:30.809Z,19.00
2018-09-14T14:48:59.481Z,19.00
2018-09-14T14:51:28.539Z,19.00
2018-09-14T14:53:57.261Z,19.00
2018-09-14T14:56:26.208Z,19.10
2018-09-14T14:58:54.977Z,19.00
2018-09-14T15:01:23.663Z,19.00
2018-09-14T15:03:52.471Z,19.00
2018-09-14T15:06:21.227Z,19.00
2018-09-14T15:08:49.933Z,19.00
2018-09-14T15:11:18.610Z,19.10
2018-09-14T15:13:47.349Z,19.10
2018-09-14T15:16:16.037Z,19.00
2018-09-14T15:18:44.826Z,19.00
2018-09-14T15:21:13.530Z,19.00
2018-09-14T15:23:42.197Z,19.00
2018-09-14T15:26:10.875Z,19.00
2018-09-14T15:28:39.554Z,18.90
2018-09-14T15:31:08.208Z,18.90
2018-09-14T15:33:36.885Z,19.00
2018-09-14T15:36:05.572Z,18.90
2018-09-14T15:38:34.244Z,18.90
2018-09-14T15:41:02.846Z,18.90
2018-09-14T15:43:31.522Z,18.90
2018-09-14T15:46:00.146Z,18.80
2018-09-14T15:48:28.809Z,18.80
2018-09-14T15:50:57.506Z,18.80
2018-09-14T15:53:26.153Z,18.80
2018-09-14T15:55:54.802Z,18.80
2018-09-14T15:58:23.473Z,18.80
2018-09-14T16:00:52.290Z,18.80
2018-09-14T16:03:20.983Z,18.80
2018-09-14T16:05:49.718Z,18.80
2018-09-14T16:08:18.413Z,18.80
2018-09-14T16:10:47.065Z,18.80
2018-09-14T16:13:15.749Z,18.80
2018-09-14T16:15:44.463Z,18.80
2018-09-14T16:18:13.144Z,18.80
2018-09-14T16:20:41.817Z,18.80
2018-09-14T16:23:10.474Z,18.70
2018-09-14T16:25:39.159Z,18.80
2018-09-14T16:28:07.837Z,18.80
2018-09-14T16:30:36.519Z,18.80
2018-09-14T16:33:05.211Z,18.80
2018-09-14T16:35:33.925Z,18.70
2018-09-14T16:38:02.688Z,18.70
2018-09-14T16:40:31.372Z,18.70
2018-09-14T16:43:00.030Z,18.70
2018-09-14T16:45:28.675Z,18.70
2018-09-14T16:47:57.466Z,18.70
2018-09-14T16:50:26.219Z,18.70
2018-09-14T16:52:54.797Z,18.70
2018-09-14T16:55:23.484Z,18.70
2018-09-14T16:57:52.141Z,18.60
2018-09-14T17:00:20.857Z,18.60
2018-09-14T17:02:49.598Z,18.60
2018-09-14T17:05:18.204Z,18.60
2018-09-14T17:07:46.890Z,18.60
2018-09-14T17:10:15.604Z,18.50
2018-09-14T17:12:44.330Z,18.50
2018-09-14T17:15:12.984Z,18.50
2018-09-14T17:17:41.666Z,18.50
2018-09-14T17:20:10.320Z,18.50
2018-09-14T17:22:39.052Z,18.40
2018-09-14T17:25:07.792Z,18.50
2018-09-14T17:27:36.568Z,18.40
2018-09-14T17:30:05.308Z,18.40
2018-09-14T17:32:34.033Z,18.40
2018-09-14T17:35:02.695Z,18.40
2018-09-14T17:37:31.345Z,18.30
2018-09-14T17:39:59.991Z,18.30
2018-09-14T17:42:28.691Z,18.30
2018-09-14T17:44:57.349Z,18.30
2018-09-14T17:47:26.021Z,18.30
2018-09-14T17:49:54.697Z,18.30
2018-09-14T17:52:23.365Z,18.20
2018-09-14T17:54:52.045Z,18.20
2018-09-14T17:57:20.785Z,18.20
2018-09-14T17:59:49.431Z,18.10
2018-09-14T18:02:18.103Z,18.10
2018-09-14T18:04:46.830Z,18.10
2018-09-14T18:07:15.467Z,18.10
2018-09-14T18:09:45.000Z,18.10
2018-09-14T18:12:13.669Z,18.00
2018-09-14T18:14:42.497Z,18.00
2018-09-14T18:17:11.363Z,18.00
2018-09-14T18:19:40.041Z,18.00
2018-09-14T18:22:08.817Z,18.00
2018-09-14T18:24:37.445Z,17.90
2018-09-14T18:27:06.138Z,17.90
2018-09-14T18:29:34.856Z,17.90
2018-09-14T18:32:03.515Z,17.90
2018-09-14T18:34:32.185Z,17.90
2018-09-14T18:37:00.866Z,17.90
2018-09-14T18:39:29.523Z,17.90
2018-09-14T18:41:58.207Z,17.90
2018-09-14T18:44:26.884Z,17.90
2018-09-14T18:46:55.637Z,17.80
2018-09-14T18:49:24.516Z,17.80
2018-09-14T18:51:53.209Z,17.80
2018-09-14T18:54:21.907Z,17.80
2018-09-14T18:56:50.794Z,17.80
2018-09-14T18:59:19.508Z,17.70
2018-09-14T19:01:48.194Z,17.70
2018-09-14T19:04:17.181Z,17.70
2018-09-14T19:06:46.132Z,17.70
2018-09-14T19:09:14.830Z,17.70
2018-09-14T19:11:43.790Z,17.70
2018-09-14T19:14:12.752Z,17.70
2018-09-14T19:16:41.436Z,17.60
2018-09-14T19:19:10.116Z,17.60
2018-09-14T19:21:38.738Z,17.60
2018-09-14T19:24:07.627Z,17.60
2018-09-14T19:26:36.606Z,17.50
2018-09-14T19:29:05.316Z,17.50
2018-09-14T19:31:35.304Z,17.50
2018-09-14T19:34:03.996Z,17.50
2018-09-14T19:36:32.658Z,17.40
2018-09-14T19:39:01.325Z,17.40
2018-09-14T19:41:30.158Z,17.40
2018-09-14T19:43:59.094Z,17.40
2018-09-14T19:46:27.770Z,17.30
2018-09-14T19:48:56.443Z,17.30
2018-09-14T19:51:25.386Z,17.30
2018-09-14T19:53:54.310Z,17.30
2018-09-14T19:56:23.192Z,17.20
2018-09-14T19:58:51.864Z,17.30
2018-09-14T20:01:20.706Z,17.20
2018-09-14T20:03:49.371Z,17.20
2018-09-14T20:06:18.205Z,17.20
2018-09-14T20:08:46.909Z,17.20
2018-09-14T20:11:15.692Z,17.20
2018-09-14T20:13:44.444Z,17.10
2018-09-14T20:16:13.268Z,17.10
2018-09-14T20:18:42.190Z,17.10
2018-09-14T20:21:10.897Z,17.10
2018-09-14T20:23:39.644Z,17.10
2018-09-14T20:26:08.467Z,17.20
2018-09-14T20:28:37.112Z,17.20
2018-09-14T20:31:05.770Z,17.20
2018-09-14T20:33:34.686Z,17.20
2018-09-14T20:36:03.349Z,17.10
2018-09-14T20:38:32.049Z,17.10
2018-09-14T20:41:00.727Z,17.10
2018-09-14T20:43:29.391Z,17.10
2018-09-14T20:45:58.051Z,17.00
2018-09-14T20:48:26.673Z,17.00
2018-09-14T20:50:55.334Z,17.10
2018-09-14T20:53:24.012Z,17.10
2018-09-14T20:55:52.644Z,17.10
2018-09-14T20:58:21.391Z,17.00
2018-09-14T21:00:50.013Z,17.00
2018-09-14T21:03:18.674Z,17.10
2018-09-14T21:05:47.305Z,17.10
2018-09-14T21:08:15.952Z,17.00
2018-09-14T21:10:44.597Z,17.10
2018-09-14T21:13:13.266Z,17.10
2018-09-14T21:15:41.948Z,17.10
2018-09-14T21:18:10.678Z,17.10
2018-09-14T21:20:39.297Z,17.10
2018-09-14T21:23:08.018Z,17.10
2018-09-14T21:25:36.654Z,17.10
2018-09-14T21:28:05.349Z,17.10
2018-09-14T21:30:34.016Z,17.10
2018-09-14T21:33:02.676Z,17.00
2018-09-14T21:35:31.304Z,17.10
2018-09-14T21:38:00.019Z,17.10
2018-09-14T21:40:28.653Z,17.10
2018-09-14T21:42:57.288Z,17.10
2018-09-14T21:45:25.928Z,17.10
2018-09-14T21:47:54.580Z,17.00
2018-09-14T21:50:23.233Z,16.90
2018-09-14T21:52:51.874Z,16.80
2018-09-14T21:55:20.518Z,16.80
2018-09-14T21:57:49.176Z,16.70
2018-09-14T22:00:23.509Z,16.70
2018-09-14T22:02:52.341Z,16.80
2018-09-14T22:05:21.259Z,16.80
2018-09-14T22:07:49.907Z,16.80
2018-09-14T22:10:18.757Z,16.80
2018-09-14T22:12:47.421Z,16.90
2018-09-14T22:15:16.099Z,16.90
2018-09-14T22:17:44.700Z,16.80
2018-09-14T22:20:13.365Z,16.80
2018-09-14T22:22:42.001Z,16.90
2018-09-14T22:25:10.667Z,16.90
2018-09-14T22:27:39.353Z,17.00
2018-09-14T22:30:08.150Z,17.00
2018-09-14T22:32:36.893Z,17.00
2018-09-14T22:35:05.548Z,17.00
2018-09-14T22:37:34.242Z,17.00
2018-09-14T22:40:02.887Z,17.00
2018-09-14T22:42:31.568Z,17.00
2018-09-14T22:45:00.244Z,17.00
2018-09-14T22:47:28.906Z,17.00
2018-09-14T22:49:57.568Z,17.00
2018-09-14T22:52:32.799Z,16.90
2018-09-14T22:55:01.452Z,16.90
2018-09-14T22:57:30.121Z,16.90
2018-09-14T22:59:58.972Z,16.90
2018-09-14T23:02:27.750Z,16.90
2018-09-14T23:04:56.551Z,16.90
2018-09-14T23:07:25.354Z,16.80
2018-09-14T23:09:54.003Z,16.80
2018-09-14T23:12:22.639Z,16.90
2018-09-14T23:14:51.300Z,16.90
2018-09-14T23:17:19.981Z,16.80
2018-09-14T23:19:48.612Z,16.80
2018-09-14T23:22:17.236Z,16.80
2018-09-14T23:24:45.878Z,16.80
2018-09-14T23:27:14.516Z,16.80
2018-09-14T23:29:43.185Z,16.70
2018-09-14T23:32:11.781Z,16.70
2018-09-14T23:34:40.435Z,16.70
2018-09-14T23:37:09.099Z,16.70
2018-09-14T23:39:37.772Z,16.60
2018-09-14T23:42:06.412Z,16.60
2018-09-14T23:44:35.090Z,16.60
2018-09-14T23:47:03.731Z,16.70
2018-09-14T23:49:32.391Z,16.70
2018-09-14T23:52:01.018Z,16.70
2018-09-14T23:54:29.662Z,16.70
2018-09-14T23:56:58.324Z,16.70
2018-09-14T23:59:26.972Z,16.70
